Nearby METAR Reports

 

CYOW - Ottawa Intl, Ontario, Canada
Distance from station: N 33km
Updated: Tue, 20-Aug-2019 11:00pm EDT
Few Clouds
Few Clouds
 Wind from S
Wind: S 9 km/h
Temperature: 19°C
Dew Point: 13°C
Humidity: 68%
Barometer: 29.94 inHg , 1013.9 hPa
Clouds: Few Clouds
Visibility: 24 km
Cloud details: Few Clouds 7620 m
2019/08/21 03:00 CYOW 210300Z 18005KT 15SM FEW250 19/13 A2994 RMK CI1 CI TR SLP140 DENSITY ALT 900FT
CYGK - Kingston Arpt, Ontario, Canada
Distance from station: SW 117km
Updated: Tue, 20-Aug-2019 11:00pm EDT
Few Clouds
Few Clouds
 Wind from ESE
Wind: ESE 7 km/h
Temperature: 23°C
Dew Point: 18°C
Humidity: 74%
Barometer: 29.95 inHg , 1014.2 hPa
Clouds: Few Clouds
Visibility: 24 km
Cloud details: Few Clouds 2134 m
Few Clouds 3048 m
2019/08/21 03:00 CYGK 210300Z 12004KT 15SM FEW070 FEW100 23/18 A2995 RMK AC1AC2 AC TR LAST STFD OBS/NXT 211000Z SLP143 DENSITY ALT 1300FT
KMSS - Massena, New York, USA
Distance from station: E 62km
Updated: Tue, 20-Aug-2019 11:53pm EDT
Clear
Clear
 Wind from SSW
Wind: SSW 6 km/h
Temperature: 15°C
Dew Point: 12°C
Humidity: 82%
Barometer: 29.97 inHg , 1014.9 hPa
Clouds: Clear
Visibility: 16 km
2019/08/21 03:53 KMSS 210353Z AUTO 21003KT 10SM CLR 15/12 A2997 RMK AO2 SLP149 T01500122